Watertown Regional Airport
KATY : now visible

Airfield :











YOU CAN JOIN US ON...

 
LOGIN :

Register | Disclaimer

   EN    FR    IT 

 









Legend :    VFR   Marginal VFR   IFR   Intensive IFR   Very Intensive IFR
Visi :
Ceiling :
>= 8 km
>= 3000ft
5 to 8 km
1000 to 3000 ft
1500m to 5 km
500 to 1000 ft
800 to 1500m
200 to 500 ft
< 800m
< 200 ft
Symbols :   Thunderstorms  Fog  Heavy snow  Heavy precipitations  Wind > 20 kt







- Airport Elevation : 1749 ft
- IATA code : ATY


KATY - Watertown Regional

CURRENT METAR :
  • 191953Z AUTO 22012KT 10SM CLR 14/03 A2997 RMK AO2 SLP157 T01390028

EXPIRED METARs :
  • 191853Z AUTO 21010KT 10SM CLR 13/04 A2999 RMK AO2 SLP167 T01280039
  • 191753Z AUTO 21008G17KT 10SM CLR 12/03 A3002 RMK AO2 SLP177 T01220033 10122 21017 58016

TAF KATY
Valid from the 19 at 18:00 until the 20 at 18:00 UTC


191724Z 1918/2018 22011KT P6SM FEW250
FM192000 22012G18KT P6SM FEW250
FM192300 20011KT P6SM FEW250
FM201600 20011KT P6SM SKC
KZMP FIR / North America



MET'MAP, your aeronautical weather chart ! - Copyright ORBIFLY December 2007 - Disclaimer

ORBIFLY MET'MAP TEAM :

Programming & Development : Alexandra Zaïnal
Concept & Development : Baudouin d'Aumeries
Co-Development & Prog : Marc-Olivier Méhu
Technical & hardware support : Manuel Goepfert

Contact : metmap@orbifly.com




SOURCES & CREDITS :

   NOAA       Earth
Advisory